Time;durP1;ratioP1;P1;durP2;ratioP2;P2;SDS_P1;SDS_P2;PMS_P1;PMS_P2;Temp;Humidity;BMP_temperature;BMP_pressure;BME280_temperature;BME280_humidity;BME280_pressure;Samples;Min_cycle;Max_cycle;Signal;HPM_P1;HPM_P2
2022/10/25 00:02:23;;;;;;;19.77;12.57;;;12.40;99.90;;;;;;4970919;28;20046;-80
2022/10/25 00:04:49;;;;;;;23.80;12.43;;;12.50;99.90;;;;;;4971014;28;20054;-80
2022/10/25 00:07:14;;;;;;;18.48;12.98;;;12.50;99.90;;;;;;4986847;28;20516;-81
2022/10/25 00:09:41;;;;;;;28.02;13.63;;;12.30;99.90;;;;;;4972342;28;20050;-80
2022/10/25 00:12:07;;;;;;;23.02;12.65;;;12.40;99.90;;;;;;4991071;28;20473;-81
2022/10/25 00:14:33;;;;;;;19.85;12.60;;;12.20;99.90;;;;;;4990084;28;20048;-81
2022/10/25 00:16:59;;;;;;;21.05;14.05;;;12.30;99.90;;;;;;4990616;28;20046;-81
2022/10/25 00:19:24;;;;;;;21.13;13.32;;;12.40;99.90;;;;;;4974241;28;20060;-80
2022/10/25 00:21:50;;;;;;;23.15;14.75;;;12.20;99.90;;;;;;4989841;28;20054;-81
2022/10/25 00:24:15;;;;;;;24.10;14.73;;;12.00;99.90;;;;;;4990553;28;20567;-81
2022/10/25 00:26:41;;;;;;;19.75;12.63;;;12.00;99.90;;;;;;4973495;28;20054;-81
2022/10/25 00:29:08;;;;;;;21.70;13.82;;;12.30;99.90;;;;;;4990343;28;20591;-80
2022/10/25 00:31:35;;;;;;;23.27;13.73;;;12.30;99.90;;;;;;4991371;28;20117;-81
2022/10/25 00:34:01;;;;;;;23.73;13.90;;;12.40;99.90;;;;;;4973976;28;20050;-81
2022/10/25 00:36:26;;;;;;;20.55;12.88;;;12.20;99.90;;;;;;4973987;28;20554;-80
2022/10/25 00:38:55;;;;;;;20.52;12.38;;;12.30;99.90;;;;;;4989567;28;20065;-81
2022/10/25 00:41:23;;;;;;;22.65;12.65;;;12.30;99.90;;;;;;4973436;28;20113;-81
2022/10/25 00:43:52;;;;;;;18.17;12.07;;;12.00;99.90;;;;;;4990192;28;20061;-81
2022/10/25 00:46:20;;;;;;;23.80;12.95;;;12.50;99.90;;;;;;4990855;28;20051;-81
2022/10/25 00:49:18;;;;;;;20.58;12.80;;;12.40;99.90;;;;;;4989735;28;20514;-80
2022/10/25 00:51:54;;;;;;;19.23;11.73;;;12.40;99.90;;;;;;4980814;28;20054;-81
2022/10/25 00:54:25;;;;;;;20.35;12.27;;;12.40;99.90;;;;;;4989596;28;20073;-81
2022/10/25 00:56:52;;;;;;;20.38;12.45;;;12.20;99.90;;;;;;4988940;28;20642;-80
2022/10/25 00:59:22;;;;;;;18.23;11.55;;;13.10;99.90;;;;;;4990687;28;20054;-81
2022/10/25 01:01:48;;;;;;;17.25;11.85;;;12.10;99.90;;;;;;4989515;28;20178;-81
2022/10/25 01:04:15;;;;;;;17.00;11.57;;;12.40;99.90;;;;;;4989413;28;20050;-81
2022/10/25 01:06:51;;;;;;;23.40;11.82;;;12.40;99.90;;;;;;4989098;28;20050;-81
2022/10/25 01:09:25;;;;;;;19.77;11.27;;;12.30;99.90;;;;;;4990864;28;20042;-81
2022/10/25 01:11:51;;;;;;;18.95;10.95;;;12.20;99.90;;;;;;4989862;28;20038;-81
2022/10/25 01:14:17;;;;;;;17.40;11.10;;;13.60;99.90;;;;;;4990565;28;20440;-81
2022/10/25 01:16:51;;;;;;;18.40;11.18;;;12.60;99.90;;;;;;4989604;28;20065;-81
2022/10/25 01:19:28;;;;;;;21.23;11.45;;;12.70;99.90;;;;;;4989218;28;20050;-81
2022/10/25 01:22:02;;;;;;;17.83;10.40;;;12.30;99.90;;;;;;4988786;28;20039;-81
2022/10/25 01:25:06;;;;;;;18.23;10.52;;;12.60;99.90;;;;;;4989058;28;20431;-81
2022/10/25 01:27:43;;;;;;;20.58;10.45;;;12.60;99.90;;;;;;4988780;28;20042;-81
2022/10/25 01:30:23;;;;;;;16.55;11.18;;;12.50;99.90;;;;;;4972852;28;20077;-81
2022/10/25 01:33:08;;;;;;;15.45;10.45;;;12.60;99.90;;;;;;4988909;28;20400;-80
2022/10/25 01:35:50;;;;;;;16.73;10.23;;;12.50;99.90;;;;;;4989809;28;20089;-81
2022/10/25 01:38:32;;;;;;;16.17;10.00;;;12.50;99.90;;;;;;4973165;28;20050;-81
2022/10/25 01:41:18;;;;;;;17.48;10.10;;;12.20;99.90;;;;;;4988535;28;20053;-81
2022/10/25 01:44:25;;;;;;;15.30;10.20;;;12.40;99.90;;;;;;4988329;28;20443;-81
2022/10/25 01:47:01;;;;;;;12.32;9.15;;;12.50;99.90;;;;;;4986119;28;20054;-81
2022/10/25 01:49:40;;;;;;;19.80;9.93;;;12.50;99.90;;;;;;4988449;28;20054;-81
2022/10/25 01:52:09;;;;;;;14.90;9.93;;;12.20;99.90;;;;;;4988404;28;20050;-80
2022/10/25 01:54:37;;;;;;;15.60;10.23;;;12.30;99.90;;;;;;4987930;28;20547;-80
2022/10/25 01:57:33;;;;;;;19.13;9.90;;;12.50;99.90;;;;;;4989059;28;20437;-80
2022/10/25 02:00:11;;;;;;;15.27;9.15;;;12.50;99.90;;;;;;4988405;28;20046;-80
2022/10/25 02:03:00;;;;;;;12.85;8.80;;;12.60;99.90;;;;;;4988994;28;20042;-80
2022/10/25 02:05:37;;;;;;;13.48;8.70;;;12.60;99.90;;;;;;4988633;28;20042;-81
2022/10/25 02:08:17;;;;;;;13.88;8.98;;;12.60;99.90;;;;;;4988427;28;20404;-80
2022/10/25 02:11:17;;;;;;;15.75;8.10;;;12.70;99.90;;;;;;4988981;28;20094;-81
2022/10/25 02:13:46;;;;;;;14.20;8.35;;;12.70;99.90;;;;;;4989314;28;20073;-81
2022/10/25 02:16:18;;;;;;;14.90;9.13;;;12.60;99.90;;;;;;4988108;28;20046;-81
2022/10/25 02:18:48;;;;;;;18.45;9.38;;;12.70;99.90;;;;;;4987901;28;20042;-80
2022/10/25 02:21:16;;;;;;;14.45;8.85;;;12.70;99.90;;;;;;4971995;28;20424;-81
2022/10/25 02:23:43;;;;;;;17.55;9.27;;;12.60;99.90;;;;;;4971413;28;20057;-80
2022/10/25 02:26:10;;;;;;;16.02;9.07;;;12.50;99.90;;;;;;4987500;28;20050;-80
2022/10/25 02:28:38;;;;;;;14.25;8.63;;;12.40;99.90;;;;;;4971251;28;20049;-80
2022/10/25 02:31:08;;;;;;;13.32;7.70;;;12.70;99.90;;;;;;4987626;28;20114;-80
2022/10/25 02:33:35;;;;;;;13.88;9.00;;;12.50;99.90;;;;;;4971012;28;20054;-80
2022/10/25 02:36:15;;;;;;;15.77;9.75;;;12.40;99.90;;;;;;4989119;28;20121;-81
2022/10/25 02:38:41;;;;;;;15.20;8.93;;;12.70;99.90;;;;;;4987164;28;20637;-81
2022/10/25 02:41:07;;;;;;;14.27;8.63;;;14.00;99.90;;;;;;4971332;28;20046;-81
2022/10/25 02:43:33;;;;;;;16.00;9.20;;;13.50;99.90;;;;;;4987746;28;20381;-81
2022/10/25 02:46:03;;;;;;;15.50;9.02;;;12.70;99.90;;;;;;4971610;28;20130;-81
2022/10/25 02:48:41;;;;;;;;;;;;;;;;;;;;;
2022/10/25 02:51:11;;;;;;;14.30;8.52;;;14.20;99.90;;;;;;4987026;28;20061;-80
2022/10/25 02:53:39;;;;;;;17.15;9.32;;;12.80;99.90;;;;;;4971144;28;20049;-81
2022/10/25 02:56:11;;;;;;;19.33;10.15;;;12.20;99.90;;;;;;4987683;28;20990;-81
2022/10/25 02:58:38;;;;;;;20.73;10.25;;;13.10;99.90;;;;;;4988318;28;20130;-81
2022/10/25 03:01:05;;;;;;;15.48;9.93;;;12.50;99.90;;;;;;4988592;28;20069;-80
2022/10/25 03:03:31;;;;;;;18.10;9.60;;;12.90;99.90;;;;;;4988729;28;20120;-80
2022/10/25 03:05:57;;;;;;;15.07;9.93;;;12.50;99.90;;;;;;4987553;28;20408;-81
2022/10/25 03:08:23;;;;;;;17.55;10.15;;;12.80;99.90;;;;;;4987390;28;20125;-81
2022/10/25 03:10:49;;;;;;;16.15;10.00;;;12.50;99.90;;;;;;4987072;28;20101;-81
2022/10/25 03:13:15;;;;;;;18.15;9.82;;;12.60;99.90;;;;;;4986900;28;20038;-81
2022/10/25 03:15:45;;;;;;;17.33;9.65;;;12.90;99.90;;;;;;4987245;28;20046;-81
2022/10/25 03:18:17;;;;;;;18.67;9.40;;;11.90;99.90;;;;;;4987000;28;20094;-81
2022/10/25 03:20:43;;;;;;;19.30;8.93;;;12.40;99.90;;;;;;4987454;28;20050;-80
2022/10/25 03:23:08;;;;;;;16.92;9.60;;;13.00;99.90;;;;;;4988273;28;20049;-81
2022/10/25 03:25:34;;;;;;;15.40;8.98;;;12.70;99.90;;;;;;4971286;28;20046;-81
2022/10/25 03:28:00;;;;;;;15.40;8.88;;;13.00;99.90;;;;;;4988390;28;20042;-80
2022/10/25 03:30:26;;;;;;;17.40;9.50;;;12.60;99.90;;;;;;4987170;28;20049;-81
2022/10/25 03:32:52;;;;;;;17.85;9.95;;;14.00;99.90;;;;;;4988650;28;20054;-81
2022/10/25 03:35:18;;;;;;;16.00;9.90;;;13.00;99.90;;;;;;4988774;28;20065;-80
2022/10/25 03:37:43;;;;;;;14.90;8.85;;;13.00;99.90;;;;;;4987290;28;20043;-81
2022/10/25 03:40:09;;;;;;;16.48;9.52;;;13.00;99.90;;;;;;4988523;28;20038;-81
2022/10/25 03:42:35;;;;;;;18.27;10.52;;;13.00;99.90;;;;;;4987290;28;20050;-80
2022/10/25 03:45:01;;;;;;;16.80;9.73;;;12.80;99.90;;;;;;4991398;28;20108;-80
2022/10/25 03:47:26;;;;;;;13.80;9.13;;;12.90;99.90;;;;;;4992226;28;20050;-81
2022/10/25 03:49:52;;;;;;;16.90;9.77;;;12.70;99.90;;;;;;4990784;28;20056;-81
2022/10/25 03:52:17;;;;;;;16.73;9.90;;;12.60;99.90;;;;;;4992014;28;20555;-80
2022/10/25 03:54:43;;;;;;;13.13;9.30;;;12.80;99.90;;;;;;4991753;28;20126;-80
2022/10/25 03:57:08;;;;;;;21.23;10.73;;;12.60;99.90;;;;;;4991203;28;21119;-80
2022/10/25 03:59:34;;;;;;;16.33;9.65;;;12.70;99.90;;;;;;4992298;28;20097;-80
2022/10/25 04:02:00;;;;;;;15.02;9.75;;;12.50;99.90;;;;;;4990617;28;20045;-80
2022/10/25 04:04:26;;;;;;;19.48;11.05;;;12.40;99.90;;;;;;4991249;28;20050;-80
2022/10/25 04:06:51;;;;;;;15.63;9.93;;;12.50;99.90;;;;;;4990847;28;20562;-80
2022/10/25 04:09:17;;;;;;;16.15;9.60;;;12.70;99.90;;;;;;4990202;28;20539;-82
2022/10/25 04:11:43;;;;;;;18.75;10.10;;;12.80;99.90;;;;;;4991383;28;20050;-81
2022/10/25 04:14:08;;;;;;;22.08;10.23;;;12.80;99.90;;;;;;4990474;28;20093;-80
2022/10/25 04:16:34;;;;;;;19.15;11.10;;;12.80;99.90;;;;;;4973483;28;20038;-81
2022/10/25 04:18:59;;;;;;;22.70;11.18;;;12.80;99.90;;;;;;4990869;28;20172;-81
2022/10/25 04:21:25;;;;;;;18.15;10.52;;;13.50;99.90;;;;;;4991830;28;20044;-81
2022/10/25 04:23:51;;;;;;;24.80;10.82;;;12.60;99.90;;;;;;4991735;28;20412;-81
2022/10/25 04:26:18;;;;;;;19.00;11.30;;;12.30;99.90;;;;;;4990736;28;20053;-81
2022/10/25 04:28:49;;;;;;;19.60;9.95;;;12.60;99.90;;;;;;4973888;28;20043;-81
2022/10/25 04:31:14;;;;;;;18.48;10.52;;;12.80;99.90;;;;;;4973871;28;20085;-81
2022/10/25 04:33:40;;;;;;;17.27;10.63;;;12.90;99.90;;;;;;4990284;28;20082;-81
2022/10/25 04:36:06;;;;;;;19.55;11.02;;;12.80;99.90;;;;;;4989823;28;20443;-81
2022/10/25 04:38:31;;;;;;;16.90;10.75;;;12.90;99.90;;;;;;4989994;28;20352;-80
2022/10/25 04:40:58;;;;;;;20.10;10.20;;;13.00;99.90;;;;;;4990058;28;20105;-81
2022/10/25 04:43:26;;;;;;;19.00;10.18;;;12.90;99.90;;;;;;4989522;28;20472;-81
2022/10/25 04:45:52;;;;;;;21.08;10.32;;;12.70;99.90;;;;;;4990283;28;20061;-81
2022/10/25 04:48:18;;;;;;;23.23;10.55;;;12.70;99.90;;;;;;4990432;28;20042;-81
2022/10/25 04:50:44;;;;;;;20.17;10.40;;;13.80;99.90;;;;;;4991213;28;20046;-81
2022/10/25 04:53:10;;;;;;;20.45;10.02;;;13.00;99.90;;;;;;4973495;28;20436;-81
2022/10/25 04:55:35;;;;;;;18.77;9.82;;;13.00;99.90;;;;;;4988757;28;20078;-81
2022/10/25 04:58:01;;;;;;;22.33;9.93;;;13.10;99.90;;;;;;4988976;28;20101;-81
2022/10/25 05:00:27;;;;;;;24.33;9.73;;;13.00;99.90;;;;;;4991227;28;20050;-81
2022/10/25 05:02:54;;;;;;;20.83;9.73;;;13.10;99.90;;;;;;4989337;28;20499;-81
2022/10/25 05:05:21;;;;;;;16.70;9.82;;;12.80;99.90;;;;;;4989983;28;20129;-81
2022/10/25 05:07:47;;;;;;;15.32;9.23;;;13.80;99.90;;;;;;4990771;28;20488;-81
2022/10/25 05:10:13;;;;;;;17.17;8.50;;;12.90;99.90;;;;;;4988705;28;20057;-81
2022/10/25 05:12:38;;;;;;;22.27;9.00;;;13.10;99.90;;;;;;4988497;28;20464;-81
2022/10/25 05:15:05;;;;;;;14.45;8.90;;;12.50;99.90;;;;;;4973519;28;20082;-81
2022/10/25 05:17:31;;;;;;;18.15;8.80;;;12.70;99.90;;;;;;4989401;28;20142;-81
2022/10/25 05:19:57;;;;;;;18.92;9.32;;;12.70;99.90;;;;;;4990025;28;20136;-81
2022/10/25 05:22:23;;;;;;;11.85;7.70;;;12.50;99.90;;;;;;4988974;28;20081;-80
2022/10/25 05:24:48;;;;;;;19.27;8.75;;;12.50;99.90;;;;;;4990510;28;20084;-81
2022/10/25 05:27:14;;;;;;;22.38;8.10;;;12.40;99.90;;;;;;4988874;28;20333;-81
2022/10/25 05:29:40;;;;;;;18.92;8.43;;;12.30;99.90;;;;;;4988354;28;20104;-81
2022/10/25 05:32:06;;;;;;;14.38;8.27;;;12.40;99.90;;;;;;4990379;28;20042;-81
2022/10/25 05:34:31;;;;;;;15.70;8.38;;;12.30;99.90;;;;;;4990186;28;20493;-81
2022/10/25 05:36:57;;;;;;;17.38;8.10;;;12.30;99.90;;;;;;4988816;28;20055;-81
2022/10/25 05:39:23;;;;;;;13.63;8.32;;;12.10;99.90;;;;;;4988925;28;20081;-81
2022/10/25 05:41:49;;;;;;;19.33;8.73;;;12.30;99.90;;;;;;4988543;28;20449;-81
2022/10/25 05:44:15;;;;;;;15.25;7.97;;;12.20;99.90;;;;;;4972347;28;20061;-81
2022/10/25 05:46:42;;;;;;;23.45;8.50;;;12.40;99.90;;;;;;4988558;28;20476;-81
2022/10/25 05:49:08;;;;;;;12.35;7.82;;;12.30;99.90;;;;;;4988873;28;20074;-81
2022/10/25 05:51:34;;;;;;;18.55;8.35;;;12.40;99.90;;;;;;4971946;28;20057;-81
2022/10/25 05:54:03;;;;;;;29.27;8.25;;;12.20;99.90;;;;;;4989676;28;20046;-81
2022/10/25 05:56:30;;;;;;;24.92;9.07;;;12.30;99.90;;;;;;4987863;28;20073;-81
2022/10/25 05:58:56;;;;;;;15.15;7.65;;;12.20;99.90;;;;;;4989934;28;20410;-81
2022/10/25 06:01:25;;;;;;;16.33;8.23;;;12.20;99.90;;;;;;4989764;28;20054;-81
2022/10/25 06:03:52;;;;;;;14.30;7.55;;;12.20;99.90;;;;;;4988119;28;20050;-81
2022/10/25 06:06:18;;;;;;;15.80;8.23;;;11.90;99.90;;;;;;4987899;28;20058;-81
2022/10/25 06:08:44;;;;;;;15.43;8.10;;;11.90;99.90;;;;;;4989732;28;20053;-81
2022/10/25 06:11:16;;;;;;;17.63;8.23;;;12.20;99.90;;;;;;4987749;28;20416;-81
2022/10/25 06:13:42;;;;;;;20.53;7.50;;;11.80;99.90;;;;;;4987425;28;20110;-81
2022/10/25 06:16:10;;;;;;;16.02;7.88;;;12.10;99.90;;;;;;4989151;28;20286;-81
2022/10/25 06:18:39;;;;;;;17.33;8.48;;;11.90;99.90;;;;;;4989274;28;20042;-81
2022/10/25 06:21:25;;;;;;;14.23;8.10;;;11.90;99.90;;;;;;4988404;28;20042;-81
2022/10/25 06:23:50;;;;;;;18.88;8.30;;;12.20;99.90;;;;;;4987796;28;20089;-81
2022/10/25 06:26:24;;;;;;;14.32;7.53;;;12.10;99.90;;;;;;4987648;28;20440;-82
2022/10/25 06:28:52;;;;;;;21.77;7.93;;;12.10;99.90;;;;;;4988356;28;20054;-81
2022/10/25 06:31:19;;;;;;;17.00;7.50;;;11.90;99.90;;;;;;4987682;28;20554;-81
2022/10/25 06:33:45;;;;;;;15.73;8.15;;;12.30;99.90;;;;;;4971838;28;20084;-81
2022/10/25 06:36:14;;;;;;;19.33;8.10;;;12.30;99.90;;;;;;4989025;28;20046;-81
2022/10/25 06:38:40;;;;;;;15.27;7.65;;;12.30;99.90;;;;;;4971598;28;20512;-81
2022/10/25 06:41:10;;;;;;;17.52;9.20;;;12.40;99.90;;;;;;4971500;28;20516;-80
2022/10/25 06:43:35;;;;;;;18.10;8.80;;;12.30;99.90;;;;;;4986845;28;20051;-81
2022/10/25 06:46:05;;;;;;;20.42;8.80;;;12.20;99.90;;;;;;4987524;28;20042;-81
2022/10/25 06:48:31;;;;;;;18.08;7.95;;;12.40;99.90;;;;;;4987910;28;20504;-81
2022/10/25 06:51:15;;;;;;;19.70;8.65;;;12.10;99.90;;;;;;4968191;28;20058;-82
2022/10/25 06:53:40;;;;;;;18.35;8.35;;;12.70;99.90;;;;;;4967417;28;20046;-81
2022/10/25 06:56:09;;;;;;;17.33;7.95;;;12.40;99.90;;;;;;4967632;28;20437;-81
2022/10/25 06:58:36;;;;;;;14.73;8.90;;;12.50;99.90;;;;;;4951741;28;20046;-82
2022/10/25 07:01:04;;;;;;;16.70;8.05;;;12.50;99.90;;;;;;4967579;28;20082;-81
2022/10/25 07:03:34;;;;;;;23.95;8.40;;;12.50;99.90;;;;;;4951553;28;20453;-82
2022/10/25 07:06:26;;;;;;;17.25;8.23;;;13.30;99.90;;;;;;4968834;28;20077;-81
2022/10/25 07:08:57;;;;;;;12.65;7.80;;;12.50;99.90;;;;;;4969859;28;20058;-81
2022/10/25 07:11:24;;;;;;;18.52;8.63;;;12.60;99.90;;;;;;4967679;28;20051;-81
2022/10/25 07:13:50;;;;;;;23.67;8.25;;;12.50;99.90;;;;;;4969365;28;20267;-81
2022/10/25 07:16:18;;;;;;;14.02;7.75;;;12.60;99.90;;;;;;4952286;28;20047;-81
2022/10/25 07:18:43;;;;;;;20.13;7.95;;;12.50;99.90;;;;;;4970288;28;20054;-81
2022/10/25 07:21:18;;;;;;;13.95;7.65;;;12.80;99.90;;;;;;4956070;28;20419;-81
2022/10/25 07:23:44;;;;;;;16.35;7.50;;;12.80;99.90;;;;;;4972366;28;20094;-81
2022/10/25 07:26:32;;;;;;;15.15;7.80;;;12.60;99.90;;;;;;4973248;28;20540;-81
2022/10/25 07:28:59;;;;;;;24.92;8.45;;;12.90;99.90;;;;;;4972030;28;20089;-81
2022/10/25 07:31:36;;;;;;;17.10;8.38;;;12.70;99.90;;;;;;4971273;28;20531;-81
2022/10/25 07:34:06;;;;;;;20.15;8.15;;;13.10;99.90;;;;;;4972047;28;20532;-81
2022/10/25 07:36:32;;;;;;;22.75;8.35;;;12.90;99.90;;;;;;4955472;28;20062;-81
2022/10/25 07:38:58;;;;;;;27.52;8.75;;;12.90;99.90;;;;;;4972954;28;20520;-81
2022/10/25 07:41:24;;;;;;;22.52;8.52;;;12.80;99.90;;;;;;4972523;28;20059;-80
2022/10/25 07:43:50;;;;;;;22.75;8.70;;;13.70;99.90;;;;;;4972327;28;20043;-80
2022/10/25 07:46:15;;;;;;;23.48;9.27;;;13.10;99.90;;;;;;4971581;28;20054;-81
2022/10/25 07:48:41;;;;;;;18.20;8.57;;;12.90;99.90;;;;;;4971746;28;20054;-83
2022/10/25 07:51:10;;;;;;;17.65;8.70;;;13.10;99.90;;;;;;4955312;28;20047;-81
2022/10/25 07:53:36;;;;;;;20.08;9.60;;;12.80;99.90;;;;;;4972398;28;20047;-81
2022/10/25 07:56:02;;;;;;;19.75;9.13;;;13.10;99.90;;;;;;4971314;28;20061;-81
2022/10/25 07:58:28;;;;;;;24.35;8.93;;;12.90;99.90;;;;;;4971023;28;20050;-82
2022/10/25 08:01:00;;;;;;;22.52;9.00;;;13.10;99.90;;;;;;4955249;28;20053;-81
2022/10/25 08:03:25;;;;;;;17.13;7.85;;;14.30;99.90;;;;;;4971592;28;20404;-82
2022/10/25 08:05:51;;;;;;;18.23;8.75;;;13.20;99.90;;;;;;4970893;28;20117;-81
2022/10/25 08:08:16;;;;;;;18.65;9.27;;;13.30;99.90;;;;;;4971460;28;20383;-81
2022/10/25 08:10:43;;;;;;;15.15;8.57;;;13.40;99.90;;;;;;4971191;28;20038;-81
2022/10/25 08:13:08;;;;;;;23.85;8.63;;;14.00;99.90;;;;;;4970988;28;20165;-82
2022/10/25 08:15:35;;;;;;;18.88;8.73;;;13.20;99.90;;;;;;4970571;28;20146;-81
2022/10/25 08:18:01;;;;;;;16.27;8.55;;;13.50;99.90;;;;;;4971481;28;20401;-81
2022/10/25 08:20:28;;;;;;;15.23;9.63;;;13.20;99.90;;;;;;4972618;28;20058;-81
2022/10/25 08:22:59;;;;;;;19.05;9.45;;;13.50;99.90;;;;;;4971904;28;20046;-81
2022/10/25 08:25:27;;;;;;;14.07;7.93;;;13.40;99.90;;;;;;4972249;28;20162;-81
2022/10/25 08:27:53;;;;;;;21.83;8.98;;;14.20;99.90;;;;;;4970370;28;20050;-81
2022/10/25 08:30:18;;;;;;;16.27;8.20;;;13.50;99.90;;;;;;4970139;28;20057;-81
2022/10/25 08:32:44;;;;;;;19.38;9.10;;;13.40;99.90;;;;;;4972091;28;20042;-81
2022/10/25 08:35:09;;;;;;;17.25;8.45;;;13.70;99.90;;;;;;4971867;28;20524;-81
2022/10/25 08:37:35;;;;;;;22.85;9.02;;;13.70;99.90;;;;;;4971717;28;20043;-79
2022/10/25 08:40:01;;;;;;;16.20;8.40;;;13.50;99.90;;;;;;4971728;28;20513;-80
2022/10/25 08:43:19;;;;;;;18.55;7.72;;;13.40;99.90;;;;;;4954409;28;20105;-81
2022/10/25 08:45:55;;;;;;;16.50;8.68;;;13.90;99.90;;;;;;4988725;28;20081;-81
2022/10/25 08:48:29;;;;;;;18.63;8.60;;;14.00;99.90;;;;;;4956555;28;20047;-81
2022/10/25 08:50:59;;;;;;;19.95;8.70;;;14.00;99.90;;;;;;4977991;28;20420;-81
2022/10/25 08:53:37;;;;;;;18.48;8.75;;;14.10;99.90;;;;;;4970722;28;20058;-82
2022/10/25 08:56:04;;;;;;;18.08;8.38;;;14.00;99.90;;;;;;4971588;28;20154;-81
2022/10/25 08:58:36;;;;;;;15.13;7.65;;;14.40;99.90;;;;;;4971214;28;20458;-81
2022/10/25 09:01:10;;;;;;;13.77;8.10;;;14.40;99.90;;;;;;4971976;28;20381;-81
2022/10/25 09:03:38;;;;;;;14.43;7.28;;;14.50;99.90;;;;;;4971734;28;20043;-81
2022/10/25 09:06:42;;;;;;;14.82;7.53;;;14.40;99.90;;;;;;4971615;28;20047;-82
2022/10/25 09:09:33;;;;;;;13.98;7.60;;;14.80;99.90;;;;;;4970347;28;20457;-81
2022/10/25 09:12:17;;;;;;;13.18;7.57;;;14.80;99.90;;;;;;4953254;28;20447;-81
2022/10/25 09:15:01;;;;;;;10.15;6.45;;;14.80;99.90;;;;;;4971152;28;20043;-82
2022/10/25 09:17:47;;;;;;;11.30;5.70;;;15.20;99.90;;;;;;4971388;28;20560;-81
2022/10/25 09:20:18;;;;;;;9.85;5.57;;;15.30;99.90;;;;;;4970923;28;20046;-81
2022/10/25 09:22:53;;;;;;;10.68;5.53;;;15.30;99.90;;;;;;4971047;28;20085;-81
2022/10/25 09:25:29;;;;;;;11.27;5.40;;;15.20;99.90;;;;;;4971160;28;20465;-81
2022/10/25 09:27:59;;;;;;;9.35;5.10;;;15.00;99.90;;;;;;4970446;28;20050;-80
2022/10/25 09:30:26;;;;;;;11.55;5.35;;;15.20;99.90;;;;;;4970568;28;20043;-81
2022/10/25 09:32:56;;;;;;;9.95;4.90;;;15.20;99.90;;;;;;4970728;28;20042;-81
2022/10/25 09:35:39;;;;;;;12.52;5.25;;;15.20;99.90;;;;;;4969600;28;20047;-81
2022/10/25 09:38:22;;;;;;;14.70;5.28;;;15.30;99.90;;;;;;4970366;28;20069;-81
2022/10/25 09:41:08;;;;;;;13.60;5.18;;;15.70;99.90;;;;;;4953075;28;20090;-81
2022/10/25 09:43:57;;;;;;;11.68;5.28;;;15.30;99.90;;;;;;4969100;28;20390;-81
2022/10/25 09:47:01;;;;;;;12.98;4.97;;;15.10;99.90;;;;;;4968700;28;20059;-81
2022/10/25 09:49:36;;;;;;;11.85;4.68;;;15.30;99.90;;;;;;4970922;28;20575;-81
2022/10/25 09:52:27;;;;;;;10.10;4.50;;;15.30;99.90;;;;;;4969318;28;20059;-81
2022/10/25 09:55:15;;;;;;;14.40;5.10;;;15.40;99.90;;;;;;4970314;28;20433;-81
2022/10/25 09:57:41;;;;;;;16.98;5.05;;;15.50;99.90;;;;;;4969555;28;20133;-80
2022/10/25 10:00:12;;;;;;;8.43;4.20;;;15.40;99.90;;;;;;4970621;28;20047;-81
2022/10/25 10:02:38;;;;;;;10.13;4.22;;;15.40;99.90;;;;;;4970416;28;20043;-81
2022/10/25 10:05:04;;;;;;;12.25;4.50;;;15.50;99.90;;;;;;4970746;28;20043;-81
2022/10/25 10:07:34;;;;;;;10.48;4.25;;;15.50;99.90;;;;;;4970457;28;20118;-81
2022/10/25 10:10:04;;;;;;;8.80;4.43;;;15.60;99.90;;;;;;4970012;28;20061;-80
2022/10/25 10:12:41;;;;;;;13.93;4.38;;;15.80;99.90;;;;;;4968165;28;20126;-80
2022/10/25 10:15:19;;;;;;;13.15;4.47;;;15.80;99.90;;;;;;4970174;28;20051;-81
2022/10/25 10:17:44;;;;;;;12.98;4.80;;;15.80;99.90;;;;;;4969708;28;20130;-81
2022/10/25 10:20:15;;;;;;;8.55;4.35;;;15.80;99.90;;;;;;4970331;28;20126;-81
2022/10/25 10:22:50;;;;;;;7.93;4.43;;;15.80;99.90;;;;;;4967665;28;20058;-81
2022/10/25 10:25:19;;;;;;;9.98;4.50;;;15.80;99.90;;;;;;4970533;28;20053;-81
2022/10/25 10:27:46;;;;;;;12.48;4.28;;;15.80;99.90;;;;;;4969030;28;20047;-81
2022/10/25 10:30:24;;;;;;;11.75;4.53;;;15.40;99.90;;;;;;4970052;28;20130;-81
2022/10/25 10:32:58;;;;;;;9.93;4.10;;;15.60;99.90;;;;;;4969161;28;20047;-80
2022/10/25 10:35:35;;;;;;;6.68;3.45;;;15.80;99.90;;;;;;4969931;28;20043;-80
2022/10/25 10:38:19;;;;;;;11.70;3.78;;;15.90;99.90;;;;;;4970057;28;20043;-80
2022/10/25 10:40:45;;;;;;;7.15;3.55;;;16.10;99.90;;;;;;4952652;28;20089;-81
2022/10/25 10:43:29;;;;;;;8.07;4.00;;;16.10;99.90;;;;;;4969498;28;20122;-80
2022/10/25 10:46:01;;;;;;;9.43;4.15;;;16.20;99.90;;;;;;4969815;28;20043;-80
2022/10/25 10:48:32;;;;;;;8.43;3.83;;;16.20;99.90;;;;;;4969159;28;20055;-81
2022/10/25 10:50:58;;;;;;;9.57;3.80;;;16.00;99.90;;;;;;4952420;28;20066;-80
2022/10/25 10:53:28;;;;;;;9.55;4.50;;;16.20;99.90;;;;;;4969296;28;20039;-80
2022/10/25 10:55:56;;;;;;;10.30;3.88;;;16.10;99.90;;;;;;4969424;28;20055;-80
2022/10/25 10:58:31;;;;;;;8.93;4.30;;;16.10;99.90;;;;;;4967872;28;20109;-80
2022/10/25 11:01:05;;;;;;;7.90;3.90;;;16.00;99.90;;;;;;4969576;28;20042;-81
2022/10/25 11:03:40;;;;;;;7.90;3.80;;;16.00;99.90;;;;;;4968612;28;20122;-80
2022/10/25 11:06:27;;;;;;;9.30;3.72;;;15.90;99.90;;;;;;4969357;28;20051;-80
2022/10/25 11:09:11;;;;;;;9.60;3.85;;;15.90;99.90;;;;;;4969036;28;20051;-80
2022/10/25 11:11:37;;;;;;;8.43;3.78;;;16.10;99.90;;;;;;4968047;28;20059;-80
2022/10/25 11:14:14;;;;;;;8.82;3.83;;;15.70;99.90;;;;;;4952047;28;20057;-80
2022/10/25 11:16:50;;;;;;;6.88;3.50;;;15.90;99.90;;;;;;4969428;28;20420;-80
2022/10/25 11:19:38;;;;;;;7.15;3.30;;;15.90;99.90;;;;;;4968150;28;20477;-81
2022/10/25 11:22:03;;;;;;;7.40;3.85;;;15.90;99.90;;;;;;4967704;28;20420;-80
2022/10/25 11:24:35;;;;;;;13.25;3.88;;;15.60;99.90;;;;;;4967881;28;20039;-80
2022/10/25 11:27:05;;;;;;;7.85;3.88;;;16.00;99.90;;;;;;4967689;28;20054;-80
2022/10/25 11:30:22;;;;;;;10.73;3.72;;;16.10;99.90;;;;;;4967364;28;20059;-80
2022/10/25 11:33:06;;;;;;;6.68;3.05;;;16.20;99.90;;;;;;4967329;28;20423;-80
2022/10/25 11:36:03;;;;;;;8.50;3.50;;;16.30;99.90;;;;;;4967999;28;20129;-81
2022/10/25 11:38:32;;;;;;;5.55;3.13;;;16.30;99.90;;;;;;4967341;28;20093;-80
2022/10/25 11:41:15;;;;;;;5.97;3.50;;;16.50;99.90;;;;;;4968209;28;20114;-80
2022/10/25 11:43:48;;;;;;;7.30;3.05;;;16.60;99.90;;;;;;4967572;28;20047;-80
2022/10/25 11:46:32;;;;;;;6.70;3.00;;;16.70;99.90;;;;;;4967798;28;20051;-81
2022/10/25 11:49:13;;;;;;;7.53;3.35;;;16.90;99.90;;;;;;4967842;28;20082;-80
2022/10/25 11:51:57;;;;;;;7.22;3.42;;;17.00;99.90;;;;;;4967733;28;20094;-81
2022/10/25 11:54:40;;;;;;;5.82;2.35;;;17.10;99.90;;;;;;4951774;28;20042;-80
2022/10/25 11:57:24;;;;;;;8.60;3.20;;;17.10;99.90;;;;;;4967512;28;20139;-80
2022/10/25 12:00:13;;;;;;;9.57;3.10;;;17.10;99.90;;;;;;4967082;28;20046;-80
2022/10/25 12:03:12;;;;;;;6.85;2.58;;;17.10;99.90;;;;;;4951703;28;20082;-80
2022/10/25 12:05:59;;;;;;;6.93;2.70;;;17.00;99.90;;;;;;4969584;28;20058;-80
2022/10/25 12:09:04;;;;;;;4.85;3.00;;;17.00;99.90;;;;;;4972693;28;20047;-80
2022/10/25 12:11:43;;;;;;;7.60;2.65;;;17.00;99.90;;;;;;4971608;28;20512;-80
2022/10/25 12:14:18;;;;;;;7.43;2.97;;;17.10;99.90;;;;;;4971623;28;20064;-80
2022/10/25 12:16:45;;;;;;;5.47;2.20;;;17.10;99.90;;;;;;4970352;28;20121;-80
2022/10/25 12:19:24;;;;;;;6.28;2.75;;;17.20;99.90;;;;;;4971373;28;20054;-80
2022/10/25 12:21:57;;;;;;;6.25;2.28;;;17.30;99.90;;;;;;4971767;28;20047;-80
2022/10/25 12:24:31;;;;;;;5.28;2.30;;;17.40;99.90;;;;;;4971106;28;20051;-81
2022/10/25 12:26:57;;;;;;;4.35;2.22;;;18.10;99.90;;;;;;4970844;28;20950;-80
2022/10/25 12:29:36;;;;;;;4.03;2.20;;;16.90;99.90;;;;;;4971217;28;20050;-80
2022/10/25 12:32:09;;;;;;;6.65;2.50;;;17.20;99.90;;;;;;4972013;28;20389;-80
2022/10/25 12:34:48;;;;;;;7.00;2.45;;;17.40;99.90;;;;;;4971601;28;20446;-80
2022/10/25 12:37:17;;;;;;;7.00;2.53;;;17.00;99.90;;;;;;4970448;28;20090;-80
2022/10/25 12:39:45;;;;;;;6.30;2.10;;;16.90;99.90;;;;;;4970762;28;20053;-80
2022/10/25 12:42:26;;;;;;;9.93;2.20;;;17.40;99.90;;;;;;4970314;28;20042;-80
2022/10/25 12:45:15;;;;;;;9.02;2.88;;;17.00;99.90;;;;;;4970617;28;20118;-80
2022/10/25 12:47:47;;;;;;;7.03;2.30;;;17.10;99.90;;;;;;4969846;28;20138;-80
2022/10/25 12:50:14;;;;;;;6.65;2.38;;;17.20;99.90;;;;;;4972006;28;20043;-80
2022/10/25 12:52:54;;;;;;;3.42;2.10;;;17.80;99.90;;;;;;4971584;28;20062;-80
2022/10/25 12:55:29;;;;;;;5.47;2.33;;;17.10;99.90;;;;;;4970188;28;20059;-80
2022/10/25 12:58:22;;;;;;;5.35;1.92;;;17.00;99.90;;;;;;4971012;28;20093;-80
2022/10/25 13:01:02;;;;;;;10.40;2.17;;;16.70;99.90;;;;;;4971107;28;20416;-80
2022/10/25 13:03:37;;;;;;;8.20;2.60;;;17.40;99.90;;;;;;4971790;28;20133;-80